createdAt,value
2018-09-26T00:01:40.260Z,75.75
2018-09-26T00:04:11.256Z,75.80
2018-09-26T00:06:39.620Z,76.23
2018-09-26T00:09:10.424Z,76.33
2018-09-26T00:11:38.941Z,75.73
2018-09-26T00:14:07.328Z,75.52
2018-09-26T00:16:35.874Z,75.37
2018-09-26T00:19:04.275Z,75.42
2018-09-26T00:21:32.624Z,75.88
2018-09-26T00:24:00.977Z,75.96
2018-09-26T00:26:29.318Z,75.45
2018-09-26T00:28:57.660Z,75.65
2018-09-26T00:31:26.137Z,75.14
2018-09-26T00:33:54.497Z,75.67
2018-09-26T00:36:22.890Z,75.73
2018-09-26T00:38:51.269Z,75.24
2018-09-26T00:41:19.604Z,75.04
2018-09-26T00:43:48.156Z,74.95
2018-09-26T00:46:16.464Z,75.35
2018-09-26T00:48:44.837Z,75.70
2018-09-26T00:51:13.147Z,75.47
2018-09-26T00:53:41.505Z,75.47
2018-09-26T00:56:09.824Z,75.63
2018-09-26T00:58:38.180Z,75.99
2018-09-26T01:01:06.516Z,75.83
2018-09-26T01:03:34.848Z,75.17
2018-09-26T01:06:03.167Z,75.75
2018-09-26T01:08:31.494Z,75.47
2018-09-26T01:10:59.807Z,75.49
2018-09-26T01:13:28.431Z,76.33
2018-09-26T01:15:56.759Z,75.30
2018-09-26T01:18:25.068Z,75.49
2018-09-26T01:20:53.404Z,75.32
2018-09-26T01:23:21.719Z,74.97
2018-09-26T01:25:50.064Z,74.50
2018-09-26T01:28:18.368Z,74.43
2018-09-26T01:30:46.700Z,74.68
2018-09-26T01:33:15.020Z,74.44
2018-09-26T01:35:43.420Z,74.44
2018-09-26T01:38:11.728Z,75.11
2018-09-26T01:40:40.064Z,75.18
2018-09-26T01:43:08.364Z,75.08
2018-09-26T01:45:36.716Z,75.08
2018-09-26T01:48:05.045Z,74.87
2018-09-26T01:50:33.405Z,74.55
2018-09-26T01:53:01.729Z,74.59
2018-09-26T01:55:30.120Z,74.15
2018-09-26T01:57:58.449Z,74.64
2018-09-26T02:00:26.801Z,73.92
2018-09-26T02:02:55.124Z,74.16
2018-09-26T02:05:23.489Z,74.00
2018-09-26T02:07:51.993Z,74.00
2018-09-26T02:10:20.388Z,73.57
2018-09-26T02:12:48.719Z,73.10
2018-09-26T02:15:17.133Z,73.29
2018-09-26T02:17:45.489Z,73.14
2018-09-26T02:20:13.833Z,72.98
2018-09-26T02:22:42.208Z,73.03
2018-09-26T02:25:10.537Z,73.06
2018-09-26T02:27:38.905Z,73.19
2018-09-26T02:30:07.409Z,72.91
2018-09-26T02:32:35.748Z,72.54
2018-09-26T02:35:04.114Z,72.21
2018-09-26T02:37:33.477Z,72.25
2018-09-26T02:40:01.844Z,72.09
2018-09-26T02:42:30.213Z,72.32
2018-09-26T02:44:58.560Z,71.62
2018-09-26T02:47:26.963Z,71.55
2018-09-26T02:49:55.291Z,72.91
2018-09-26T02:52:23.640Z,72.33
2018-09-26T02:54:51.964Z,72.05
2018-09-26T02:57:20.315Z,72.66
2018-09-26T02:59:48.644Z,72.92
2018-09-26T03:02:17.036Z,72.75
2018-09-26T03:04:45.356Z,73.00
2018-09-26T03:07:13.683Z,73.33
2018-09-26T03:09:42.036Z,73.01
2018-09-26T03:12:10.355Z,72.69
2018-09-26T03:14:38.900Z,72.57
2018-09-26T03:17:07.320Z,72.61
2018-09-26T03:19:35.683Z,72.76
2018-09-26T03:22:04.349Z,72.86
2018-09-26T03:24:32.696Z,72.39
2018-09-26T03:27:01.016Z,72.21
2018-09-26T03:29:29.360Z,72.34
2018-09-26T03:31:57.681Z,72.71
2018-09-26T03:34:26.280Z,72.46
2018-09-26T03:36:54.602Z,71.93
2018-09-26T03:39:22.960Z,71.84
2018-09-26T03:41:51.292Z,72.53
2018-09-26T03:44:19.687Z,72.60
2018-09-26T03:46:48.000Z,72.66
2018-09-26T03:49:16.400Z,72.01
2018-09-26T03:51:44.718Z,72.63
2018-09-26T03:54:13.068Z,71.75
2018-09-26T03:56:41.396Z,71.87
2018-09-26T03:59:09.749Z,72.16
2018-09-26T04:01:38.080Z,71.54
2018-09-26T04:04:06.677Z,71.17
2018-09-26T04:06:35.000Z,71.21
2018-09-26T04:09:03.824Z,70.47
2018-09-26T04:11:32.160Z,71.56
2018-09-26T04:14:00.476Z,71.05
2018-09-26T04:16:28.856Z,70.80
2018-09-26T04:18:57.216Z,71.57
2018-09-26T04:21:25.551Z,71.24
2018-09-26T04:23:53.887Z,70.46
2018-09-26T04:26:22.304Z,70.24
2018-09-26T04:28:50.596Z,70.33
2018-09-26T04:31:18.956Z,70.30
2018-09-26T04:33:47.327Z,70.41
2018-09-26T04:36:15.647Z,71.00
2018-09-26T04:38:44.028Z,70.01
2018-09-26T04:41:12.356Z,70.42
2018-09-26T04:43:40.701Z,70.09
2018-09-26T04:46:09.026Z,69.99
2018-09-26T04:48:37.325Z,69.72
2018-09-26T04:51:05.678Z,69.77
2018-09-26T04:53:34.081Z,69.30
2018-09-26T04:56:02.362Z,68.97
2018-09-26T04:58:30.719Z,68.65
2018-09-26T05:00:59.096Z,68.46
2018-09-26T05:03:27.580Z,68.83
2018-09-26T05:05:55.905Z,68.34
2018-09-26T05:08:24.344Z,68.69
2018-09-26T05:10:52.612Z,68.70
2018-09-26T05:13:21.019Z,68.66
2018-09-26T05:15:49.383Z,68.82
2018-09-26T05:18:17.749Z,69.35
2018-09-26T05:20:46.072Z,68.61
2018-09-26T05:23:14.445Z,68.62
2018-09-26T05:25:42.751Z,68.83
2018-09-26T05:28:11.116Z,68.92
2018-09-26T05:30:39.440Z,68.62
2018-09-26T05:33:07.820Z,68.48
2018-09-26T05:35:36.135Z,68.55
2018-09-26T05:38:04.496Z,68.44
2018-09-26T05:40:32.816Z,68.61
2018-09-26T05:43:01.678Z,68.34
2018-09-26T05:45:30.088Z,68.68
2018-09-26T05:47:58.443Z,68.88
2018-09-26T05:50:26.799Z,68.16
2018-09-26T05:52:55.099Z,68.15
2018-09-26T05:55:23.423Z,67.72
2018-09-26T05:57:51.719Z,68.19
2018-09-26T06:00:20.047Z,67.85
2018-09-26T06:02:48.375Z,68.15
2018-09-26T06:05:16.710Z,67.40
2018-09-26T06:07:45.802Z,67.29
2018-09-26T06:10:14.139Z,66.71
2018-09-26T06:12:42.502Z,66.71
2018-09-26T06:15:10.821Z,66.57
2018-09-26T06:17:39.119Z,66.61
2018-09-26T06:20:08.734Z,65.85
2018-09-26T06:22:37.027Z,66.25
2018-09-26T06:25:05.563Z,65.38
2018-09-26T06:27:34.495Z,65.06
2018-09-26T06:30:03.063Z,64.83
2018-09-26T06:32:31.366Z,64.42
2018-09-26T06:34:59.731Z,64.39
2018-09-26T06:37:28.038Z,64.30
2018-09-26T06:39:56.651Z,64.44
2018-09-26T06:42:24.958Z,64.01
2018-09-26T06:44:53.251Z,63.75
2018-09-26T06:47:21.578Z,63.50
2018-09-26T06:49:49.924Z,63.07
2018-09-26T06:52:18.335Z,62.87
2018-09-26T06:54:46.689Z,62.13
2018-09-26T06:57:15.053Z,62.20
2018-09-26T06:59:43.376Z,61.82
2018-09-26T07:02:11.764Z,61.41
2018-09-26T07:04:40.092Z,61.04
2018-09-26T07:07:08.436Z,61.50
2018-09-26T07:09:36.772Z,60.76
2018-09-26T07:12:05.138Z,60.98
2018-09-26T07:14:33.456Z,60.53
2018-09-26T07:17:01.801Z,60.12
2018-09-26T07:19:30.141Z,60.09
2018-09-26T07:21:58.487Z,59.79
2018-09-26T07:24:26.847Z,60.14
2018-09-26T07:26:55.212Z,59.52
2018-09-26T07:29:23.560Z,59.68
2018-09-26T07:31:51.909Z,59.85
2018-09-26T07:34:25.433Z,59.43
2018-09-26T07:36:53.857Z,59.03
2018-09-26T07:39:22.202Z,59.27
2018-09-26T07:41:50.548Z,59.08
2018-09-26T07:44:18.894Z,59.03
2018-09-26T07:46:47.267Z,58.73
2018-09-26T07:49:15.768Z,58.32
2018-09-26T07:51:44.148Z,58.54
2018-09-26T07:54:12.540Z,58.46
2018-09-26T07:56:40.932Z,58.79
2018-09-26T07:59:09.360Z,58.31
2018-09-26T08:01:37.658Z,57.34
2018-09-26T08:04:06.020Z,56.71
2018-09-26T08:06:34.440Z,56.39
2018-09-26T08:09:02.845Z,55.76
2018-09-26T08:11:31.223Z,56.25
2018-09-26T08:13:59.572Z,56.74
2018-09-26T08:16:27.924Z,57.26
2018-09-26T08:18:56.281Z,56.96
2018-09-26T08:21:24.960Z,57.28
2018-09-26T08:23:53.371Z,57.47
2018-09-26T08:26:21.665Z,58.19
2018-09-26T08:28:50.021Z,57.79
2018-09-26T08:31:18.488Z,57.08
2018-09-26T08:33:46.868Z,56.37
2018-09-26T08:36:15.220Z,56.33
2018-09-26T08:38:43.585Z,56.42
2018-09-26T08:41:11.948Z,56.50
2018-09-26T08:43:40.337Z,56.55
2018-09-26T08:46:08.717Z,56.61
2018-09-26T08:48:37.101Z,55.97
2018-09-26T08:51:05.441Z,55.90
2018-09-26T08:53:33.878Z,55.68
2018-09-26T08:56:02.192Z,56.33
2018-09-26T08:58:30.564Z,56.21
2018-09-26T09:00:58.930Z,56.19
2018-09-26T09:03:27.300Z,56.35
2018-09-26T09:05:55.661Z,57.10
2018-09-26T09:08:24.032Z,56.85
2018-09-26T09:10:52.401Z,57.46
2018-09-26T09:13:20.740Z,56.58
2018-09-26T09:15:49.076Z,56.63
2018-09-26T09:18:17.867Z,57.37
2018-09-26T09:20:46.223Z,57.26
2018-09-26T09:23:14.565Z,58.16
2018-09-26T09:25:42.923Z,57.29
2018-09-26T09:28:11.279Z,57.30
2018-09-26T09:30:39.596Z,57.46
2018-09-26T09:33:07.947Z,57.59
2018-09-26T09:35:36.291Z,58.05
2018-09-26T09:38:04.645Z,57.87
2018-09-26T09:40:32.964Z,57.99
2018-09-26T09:43:01.289Z,57.56
2018-09-26T09:45:29.624Z,57.64
2018-09-26T09:47:57.959Z,58.04
2018-09-26T09:50:26.299Z,58.13
2018-09-26T09:52:54.959Z,57.60
2018-09-26T09:55:23.300Z,56.59
2018-09-26T09:57:51.612Z,55.41
2018-09-26T10:00:20.004Z,55.23
2018-09-26T10:02:48.455Z,56.20
2018-09-26T10:05:16.665Z,55.57
2018-09-26T10:07:44.984Z,57.02
2018-09-26T10:10:13.323Z,56.31
2018-09-26T10:12:41.658Z,56.90
2018-09-26T10:15:10.060Z,57.06
2018-09-26T10:17:38.459Z,57.24
2018-09-26T10:20:06.778Z,58.18
2018-09-26T10:22:35.100Z,58.02
2018-09-26T10:25:03.477Z,58.71
2018-09-26T10:27:31.815Z,58.94
2018-09-26T10:30:00.140Z,59.26
2018-09-26T10:32:28.478Z,58.84
2018-09-26T10:34:56.902Z,59.14
2018-09-26T10:37:25.204Z,59.04
2018-09-26T10:39:53.565Z,57.97
2018-09-26T10:42:21.892Z,58.51
2018-09-26T10:44:50.244Z,58.09
2018-09-26T10:47:19.465Z,58.50
2018-09-26T10:49:47.816Z,58.83
2018-09-26T10:52:16.156Z,58.27
2018-09-26T10:54:44.546Z,58.97
2018-09-26T10:57:12.884Z,58.98
2018-09-26T10:59:41.246Z,58.15
2018-09-26T11:02:09.692Z,57.88
2018-09-26T11:04:38.057Z,57.86
2018-09-26T11:07:06.347Z,58.99
2018-09-26T11:09:34.642Z,58.54
2018-09-26T11:12:02.930Z,59.24
2018-09-26T11:14:31.226Z,58.27
2018-09-26T11:16:59.568Z,59.36
2018-09-26T11:19:27.921Z,58.91
2018-09-26T11:21:56.302Z,58.42
2018-09-26T11:24:24.660Z,58.16
2018-09-26T11:26:52.988Z,58.57
2018-09-26T11:29:21.386Z,58.74
2018-09-26T11:31:49.732Z,58.57
2018-09-26T11:34:18.175Z,57.90
2018-09-26T11:36:46.521Z,58.36
2018-09-26T11:39:14.901Z,57.36
2018-09-26T11:41:43.299Z,57.45
2018-09-26T11:44:11.648Z,58.07
2018-09-26T11:46:39.977Z,57.56
2018-09-26T11:49:08.369Z,57.33
2018-09-26T11:51:36.710Z,57.54
2018-09-26T11:54:05.081Z,57.75
2018-09-26T11:56:33.420Z,57.68
2018-09-26T11:59:01.826Z,57.62
2018-09-26T12:01:30.161Z,57.27
2018-09-26T12:03:58.509Z,57.67
2018-09-26T12:06:26.850Z,57.03
2018-09-26T12:08:55.208Z,57.15
2018-09-26T12:11:23.619Z,57.19
2018-09-26T12:13:52.005Z,57.61
2018-09-26T12:16:20.319Z,57.18
2018-09-26T12:18:48.908Z,57.29
2018-09-26T12:21:17.320Z,57.71
2018-09-26T12:23:45.669Z,57.20
2018-09-26T12:26:14.040Z,56.46
2018-09-26T12:28:42.401Z,55.66
2018-09-26T12:31:10.733Z,55.49
2018-09-26T12:33:39.104Z,55.93
2018-09-26T12:36:07.728Z,56.17
2018-09-26T12:38:36.101Z,55.65
2018-09-26T12:41:04.453Z,56.29
2018-09-26T12:43:32.953Z,55.83
2018-09-26T12:46:01.571Z,55.59
2018-09-26T12:48:29.974Z,55.25
2018-09-26T12:50:58.328Z,55.24
2018-09-26T12:53:26.810Z,55.26
2018-09-26T12:55:55.105Z,55.76
2018-09-26T12:58:23.510Z,55.41
2018-09-26T13:00:51.825Z,54.81
2018-09-26T13:03:20.330Z,55.51
2018-09-26T13:05:48.692Z,55.85
2018-09-26T13:08:17.106Z,55.40
2018-09-26T13:10:45.436Z,55.34
2018-09-26T13:13:13.797Z,55.78
2018-09-26T13:15:42.168Z,55.86
2018-09-26T13:18:10.519Z,56.18
2018-09-26T13:20:38.898Z,55.62
2018-09-26T13:23:07.310Z,55.92
2018-09-26T13:25:35.842Z,56.77
2018-09-26T13:28:04.430Z,56.72
2018-09-26T13:30:32.760Z,56.21
2018-09-26T13:33:01.100Z,56.97
2018-09-26T13:35:29.464Z,57.71
2018-09-26T13:37:57.787Z,57.64
2018-09-26T13:40:26.213Z,57.73
2018-09-26T13:42:54.469Z,58.30
2018-09-26T13:45:22.853Z,58.01
2018-09-26T13:47:51.192Z,57.67
2018-09-26T13:50:19.645Z,57.61
2018-09-26T13:52:48.007Z,62.86
2018-09-26T13:55:16.381Z,63.78
2018-09-26T13:57:44.780Z,65.78
2018-09-26T14:00:16.074Z,66.12
2018-09-26T14:02:45.661Z,67.13
2018-09-26T14:05:14.033Z,66.76
2018-09-26T14:07:42.389Z,67.61
2018-09-26T14:10:10.777Z,68.24
2018-09-26T14:12:39.141Z,68.53
2018-09-26T14:15:07.845Z,68.50
2018-09-26T14:17:36.213Z,69.59
2018-09-26T14:20:04.706Z,69.01
2018-09-26T14:22:33.038Z,68.86
2018-09-26T14:25:01.402Z,68.04
2018-09-26T14:27:29.756Z,68.02
2018-09-26T14:29:58.121Z,68.08
2018-09-26T14:32:26.493Z,67.73
2018-09-26T14:34:54.852Z,68.27
2018-09-26T14:37:23.193Z,69.28
2018-09-26T14:39:51.633Z,70.73
2018-09-26T14:42:19.983Z,71.60
2018-09-26T14:44:48.368Z,72.13
2018-09-26T14:47:16.824Z,72.59
2018-09-26T14:49:45.199Z,72.79
2018-09-26T14:52:13.572Z,73.59
2018-09-26T14:54:42.181Z,74.22
2018-09-26T14:57:10.548Z,74.33
2018-09-26T14:59:38.897Z,74.19
2018-09-26T15:02:07.437Z,74.61
2018-09-26T15:04:35.820Z,75.89
2018-09-26T15:07:04.113Z,76.10
2018-09-26T15:09:32.464Z,76.37
2018-09-26T15:12:00.840Z,76.31
2018-09-26T15:14:29.187Z,76.49
2018-09-26T15:16:57.572Z,76.35
2018-09-26T15:19:26.205Z,76.07
2018-09-26T15:21:54.576Z,75.88
2018-09-26T15:24:23.005Z,75.92
2018-09-26T15:26:51.300Z,76.13
2018-09-26T15:29:19.632Z,76.29
2018-09-26T15:31:47.984Z,77.31
2018-09-26T15:34:16.319Z,78.39
2018-09-26T15:36:44.671Z,78.84
2018-09-26T15:39:12.971Z,79.51
2018-09-26T15:41:41.386Z,80.10
2018-09-26T15:44:09.658Z,81.12
2018-09-26T15:46:38.124Z,82.14
2018-09-26T15:49:07.007Z,82.29
2018-09-26T15:51:35.532Z,81.63
2018-09-26T15:54:03.868Z,81.02
2018-09-26T15:56:32.188Z,80.36
2018-09-26T15:59:01.232Z,79.75
2018-09-26T16:01:35.201Z,78.83
2018-09-26T16:04:03.495Z,78.99
2018-09-26T16:06:31.828Z,78.19
2018-09-26T16:09:00.110Z,78.10
2018-09-26T16:11:28.413Z,77.51
2018-09-26T16:13:56.744Z,77.34
2018-09-26T16:17:49.546Z,77.90
2018-09-26T16:20:17.964Z,78.66
2018-09-26T16:22:46.229Z,79.80
2018-09-26T16:25:14.581Z,81.21
2018-09-26T16:27:42.913Z,82.83
2018-09-26T16:30:11.633Z,83.21
2018-09-26T16:32:39.953Z,85.57
2018-09-26T16:37:58.656Z,88.45
2018-09-26T16:40:27.095Z,89.84
2018-09-26T16:42:55.327Z,90.77
2018-09-26T16:45:23.672Z,91.12
2018-09-26T16:47:52.011Z,91.36
2018-09-26T16:50:20.363Z,92.69
2018-09-26T16:52:48.872Z,92.68
2018-09-26T16:55:17.783Z,93.09
2018-09-26T16:57:46.200Z,93.69
2018-09-26T17:00:14.577Z,94.03
2018-09-26T17:02:42.936Z,93.62
2018-09-26T17:05:11.480Z,92.44
2018-09-26T17:07:39.818Z,92.75
2018-09-26T17:10:08.232Z,92.62
2018-09-26T17:12:36.743Z,92.17
2018-09-26T17:15:05.363Z,92.55
2018-09-26T17:17:33.689Z,92.67
2018-09-26T17:20:02.269Z,92.44
2018-09-26T17:22:30.747Z,92.19
2018-09-26T17:24:59.092Z,91.53
2018-09-26T17:27:27.596Z,91.21
2018-09-26T17:29:55.937Z,90.51
2018-09-26T17:32:25.632Z,90.94
2018-09-26T17:34:54.093Z,89.80
2018-09-26T17:37:22.425Z,89.83
2018-09-26T17:39:50.750Z,89.26
2018-09-26T17:42:19.430Z,89.94
2018-09-26T17:44:47.810Z,90.43
2018-09-26T17:47:16.083Z,89.70
2018-09-26T17:49:44.409Z,89.53
2018-09-26T17:52:12.718Z,89.61
2018-09-26T17:54:41.222Z,89.78
2018-09-26T17:57:09.630Z,89.88
2018-09-26T17:59:37.935Z,89.86
2018-09-26T18:02:06.248Z,89.84
2018-09-26T18:04:34.607Z,89.58
2018-09-26T18:07:03.800Z,90.15
2018-09-26T18:09:32.114Z,90.32
2018-09-26T18:12:00.432Z,90.43
2018-09-26T18:14:28.716Z,90.73
2018-09-26T18:16:57.007Z,91.02
2018-09-26T18:19:25.310Z,92.44
2018-09-26T18:21:53.583Z,93.08
2018-09-26T18:24:22.760Z,94.57
2018-09-26T18:26:51.125Z,95.40
2018-09-26T18:29:19.804Z,95.73
2018-09-26T18:31:48.136Z,96.44
2018-09-26T18:34:16.489Z,97.26
2018-09-26T18:36:44.816Z,97.43
2018-09-26T18:39:13.150Z,97.01
2018-09-26T18:41:41.508Z,97.49
2018-09-26T18:44:09.823Z,97.24
2018-09-26T18:46:38.144Z,97.48
2018-09-26T18:49:06.508Z,98.88
2018-09-26T18:51:34.813Z,99.15
2018-09-26T18:54:03.135Z,99.59
2018-09-26T18:56:31.488Z,100.00
2018-09-26T18:58:59.828Z,100.00
2018-09-26T19:01:28.705Z,100.00
2018-09-26T19:03:57.119Z,100.00
2018-09-26T19:06:25.639Z,100.00
2018-09-26T19:08:54.118Z,100.00
2018-09-26T19:11:22.948Z,100.00
2018-09-26T19:13:51.303Z,100.00
2018-09-26T19:16:19.624Z,100.00
2018-09-26T19:18:48.043Z,100.00
2018-09-26T19:21:16.408Z,100.00
2018-09-26T19:23:44.904Z,100.00
2018-09-26T19:26:13.363Z,100.00
2018-09-26T19:28:41.684Z,100.00
2018-09-26T19:31:10.008Z,100.00
2018-09-26T19:33:38.424Z,100.00
2018-09-26T19:36:06.771Z,100.00
2018-09-26T19:38:35.325Z,100.00
2018-09-26T19:41:03.717Z,100.00
2018-09-26T19:43:32.037Z,100.00
2018-09-26T19:46:00.413Z,100.00
2018-09-26T19:48:28.878Z,100.00
2018-09-26T19:50:57.363Z,100.00
2018-09-26T19:53:26.684Z,100.00
2018-09-26T19:55:55.114Z,100.00
2018-09-26T19:58:24.673Z,100.00
2018-09-26T20:00:52.869Z,100.00
2018-09-26T20:03:21.233Z,100.00
2018-09-26T20:05:49.557Z,100.00
2018-09-26T20:08:17.890Z,100.00
2018-09-26T20:10:46.268Z,100.00
2018-09-26T20:13:14.653Z,100.00
2018-09-26T20:15:42.984Z,100.00
2018-09-26T20:18:11.380Z,100.00
2018-09-26T20:20:39.717Z,100.00
2018-09-26T20:23:08.129Z,100.00
2018-09-26T20:25:36.512Z,100.00
2018-09-26T20:28:05.120Z,100.00
2018-09-26T20:30:33.484Z,100.00
2018-09-26T20:33:01.927Z,100.00
2018-09-26T20:35:30.281Z,100.00
2018-09-26T20:37:58.568Z,100.00
2018-09-26T20:40:26.916Z,100.00
2018-09-26T20:42:55.287Z,100.00
2018-09-26T20:45:23.705Z,100.00
2018-09-26T20:47:52.029Z,100.00
2018-09-26T20:50:20.345Z,100.00
2018-09-26T20:52:48.677Z,100.00
2018-09-26T20:55:17.049Z,100.00
2018-09-26T20:57:46.600Z,100.00
2018-09-26T21:00:14.932Z,100.00
2018-09-26T21:02:43.513Z,100.00
2018-09-26T21:05:12.037Z,100.00
2018-09-26T21:07:40.382Z,100.00
2018-09-26T21:10:09.113Z,100.00
2018-09-26T21:12:37.432Z,100.00
2018-09-26T21:15:06.121Z,100.00
2018-09-26T21:17:35.303Z,100.00
2018-09-26T21:20:03.812Z,100.00
2018-09-26T21:22:32.292Z,100.00
2018-09-26T21:25:01.024Z,100.00
2018-09-26T21:27:29.355Z,100.00
2018-09-26T21:29:58.157Z,100.00
2018-09-26T21:32:26.496Z,100.00
2018-09-26T21:34:54.857Z,100.00
2018-09-26T21:37:23.585Z,100.00
2018-09-26T21:39:51.957Z,100.00
2018-09-26T21:42:20.304Z,100.00
2018-09-26T21:44:48.625Z,100.00
2018-09-26T21:47:17.156Z,100.00
2018-09-26T21:49:45.514Z,100.00
2018-09-26T21:52:13.845Z,100.00
2018-09-26T21:54:42.204Z,100.00
2018-09-26T21:57:10.557Z,100.00
2018-09-26T21:59:38.881Z,100.00
2018-09-26T22:02:07.321Z,100.00
2018-09-26T22:04:35.644Z,100.00
2018-09-26T22:07:03.972Z,100.00
2018-09-26T22:09:32.452Z,100.00
2018-09-26T22:12:00.899Z,100.00
2018-09-26T22:14:29.236Z,100.00
2018-09-26T22:16:57.588Z,100.00
2018-09-26T22:19:25.937Z,100.00
2018-09-26T22:21:54.272Z,100.00
2018-09-26T22:24:22.660Z,100.00
2018-09-26T22:26:51.013Z,100.00
2018-09-26T22:29:19.354Z,100.00
2018-09-26T22:31:47.957Z,100.00
2018-09-26T22:34:16.277Z,100.00
2018-09-26T22:36:44.637Z,100.00
2018-09-26T22:39:12.972Z,100.00
2018-09-26T22:41:41.292Z,100.00
2018-09-26T22:44:09.663Z,100.00
2018-09-26T22:46:38.522Z,100.00
2018-09-26T22:49:06.865Z,100.00
2018-09-26T22:51:35.200Z,100.00
2018-09-26T22:54:03.683Z,100.00
2018-09-26T22:56:32.003Z,100.00
2018-09-26T22:59:00.385Z,100.00
2018-09-26T23:01:28.744Z,100.00
2018-09-26T23:03:57.071Z,100.00
2018-09-26T23:06:25.400Z,100.00
2018-09-26T23:08:53.992Z,100.00
2018-09-26T23:11:22.611Z,100.00
2018-09-26T23:13:50.927Z,100.00
2018-09-26T23:16:19.299Z,100.00
2018-09-26T23:18:47.635Z,100.00
2018-09-26T23:21:15.956Z,100.00
2018-09-26T23:23:44.293Z,100.00
2018-09-26T23:26:12.611Z,100.00
2018-09-26T23:28:40.940Z,100.00
2018-09-26T23:31:09.315Z,100.00
2018-09-26T23:33:37.873Z,100.00
2018-09-26T23:36:06.250Z,100.00
2018-09-26T23:38:34.616Z,100.00
2018-09-26T23:41:02.949Z,100.00
2018-09-26T23:43:31.285Z,100.00
2018-09-26T23:45:59.756Z,100.00
2018-09-26T23:48:28.112Z,100.00
2018-09-26T23:50:56.452Z,100.00
2018-09-26T23:53:24.831Z,100.00
2018-09-26T23:55:53.139Z,100.00
2018-09-26T23:58:21.485Z,100.00
